createdAt,value
2022-10-28T00:01:24.230Z,7.90
2022-10-28T00:03:53.537Z,7.90
2022-10-28T00:06:23.459Z,7.90
2022-10-28T00:08:50.665Z,7.90
2022-10-28T00:11:26.675Z,7.90
2022-10-28T00:13:55.201Z,7.90
2022-10-28T00:16:25.193Z,7.90
2022-10-28T00:18:53.992Z,7.90
2022-10-28T00:21:25.950Z,7.90
2022-10-28T00:23:53.333Z,7.90
2022-10-28T00:26:29.773Z,7.90
2022-10-28T00:29:00.953Z,7.90
2022-10-28T00:31:29.911Z,7.90
2022-10-28T00:33:58.848Z,7.80
2022-10-28T00:36:28.190Z,7.70
2022-10-28T00:38:56.421Z,7.70
2022-10-28T00:41:29.571Z,7.70
2022-10-28T00:43:59.557Z,7.60
2022-10-28T00:46:47.452Z,7.60
2022-10-28T00:49:24.200Z,7.50
2022-10-28T00:51:55.881Z,7.40
2022-10-28T00:54:23.384Z,7.50
2022-10-28T00:56:55.409Z,7.50
2022-10-28T00:59:27.007Z,7.50
2022-10-28T01:01:54.589Z,7.50
2022-10-28T01:04:22.331Z,7.50
2022-10-28T01:06:50.775Z,7.50
2022-10-28T01:09:17.878Z,7.50
2022-10-28T01:12:09.452Z,7.50
2022-10-28T01:15:01.035Z,7.60
2022-10-28T01:17:45.792Z,7.60
2022-10-28T01:20:30.665Z,7.60
2022-10-28T01:23:15.788Z,7.50
2022-10-28T01:26:13.741Z,7.50
2022-10-28T01:28:55.557Z,7.50
2022-10-28T01:31:30.830Z,7.40
2022-10-28T01:34:10.202Z,7.40
2022-10-28T01:36:40.411Z,7.30
2022-10-28T01:39:33.698Z,7.30
2022-10-28T01:42:08.908Z,7.20
2022-10-28T01:44:46.514Z,7.10
2022-10-28T01:47:28.569Z,6.90
2022-10-28T01:50:07.394Z,6.90
2022-10-28T01:52:35.164Z,6.90
2022-10-28T01:55:15.047Z,7.00
2022-10-28T01:57:43.346Z,7.10
2022-10-28T02:00:11.222Z,7.20
2022-10-28T02:02:39.166Z,7.20
2022-10-28T02:05:26.174Z,7.20
2022-10-28T02:07:58.991Z,7.20
2022-10-28T02:10:35.253Z,7.20
2022-10-28T02:13:10.394Z,7.30
2022-10-28T02:15:59.847Z,7.40
2022-10-28T02:18:49.469Z,7.40
2022-10-28T02:21:46.037Z,7.40
2022-10-28T02:24:23.880Z,7.30
2022-10-28T02:27:21.132Z,7.30
2022-10-28T02:29:57.685Z,7.40
2022-10-28T02:32:27.889Z,7.40
2022-10-28T02:34:58.066Z,7.40
2022-10-28T02:37:31.136Z,7.40
2022-10-28T02:40:02.205Z,7.40
2022-10-28T02:42:35.273Z,7.50
2022-10-28T02:45:09.882Z,7.50
2022-10-28T02:47:41.220Z,7.50
2022-10-28T02:50:12.558Z,7.50
2022-10-28T02:52:42.546Z,7.50
2022-10-28T02:55:09.636Z,7.50
2022-10-28T02:57:41.549Z,7.40
2022-10-28T03:00:18.190Z,7.40
2022-10-28T03:02:45.669Z,7.40
2022-10-28T03:05:12.884Z,7.50
2022-10-28T03:07:40.300Z,7.50
2022-10-28T03:10:07.912Z,7.40
2022-10-28T03:12:35.116Z,7.40
2022-10-28T03:15:03.045Z,7.40
2022-10-28T03:17:30.434Z,7.40
2022-10-28T03:19:57.299Z,7.40
2022-10-28T03:22:24.380Z,7.30
2022-10-28T03:24:51.279Z,7.30
2022-10-28T03:27:19.369Z,7.30
2022-10-28T03:29:46.894Z,7.30
2022-10-28T03:32:14.263Z,7.40
2022-10-28T03:34:41.300Z,7.40
2022-10-28T03:37:08.407Z,7.40
2022-10-28T03:39:35.312Z,7.50
2022-10-28T03:42:02.414Z,7.50
2022-10-28T03:44:29.333Z,7.50
2022-10-28T03:46:56.443Z,7.60
2022-10-28T03:49:23.416Z,7.70
2022-10-28T03:51:50.454Z,7.70
2022-10-28T03:54:17.473Z,7.70
2022-10-28T03:56:44.569Z,7.70
2022-10-28T03:59:13.264Z,7.70
2022-10-28T04:01:42.330Z,7.80
2022-10-28T04:04:09.358Z,7.90
2022-10-28T04:06:36.466Z,7.90
2022-10-28T04:09:03.653Z,7.90
2022-10-28T04:11:30.814Z,7.90
2022-10-28T04:13:57.713Z,8.00
2022-10-28T04:16:24.798Z,8.00
2022-10-28T04:18:51.784Z,8.10
2022-10-28T04:21:18.937Z,8.10
2022-10-28T04:23:45.881Z,8.10
2022-10-28T04:26:14.159Z,8.20
2022-10-28T04:28:41.113Z,8.20
2022-10-28T04:31:10.081Z,8.20
2022-10-28T04:33:36.981Z,8.20
2022-10-28T04:36:04.300Z,8.20
2022-10-28T04:38:31.219Z,8.20
2022-10-28T04:40:58.353Z,8.30
2022-10-28T04:43:25.258Z,8.20
2022-10-28T04:45:52.357Z,8.30
2022-10-28T04:48:19.469Z,8.30
2022-10-28T04:50:46.728Z,8.30
2022-10-28T04:53:13.696Z,8.30
2022-10-28T04:55:40.821Z,8.30
2022-10-28T04:58:09.714Z,8.30
2022-10-28T05:00:36.796Z,8.30
2022-10-28T05:03:03.846Z,8.30
2022-10-28T05:05:31.207Z,8.30
2022-10-28T05:07:58.380Z,8.30
2022-10-28T05:10:25.992Z,8.30
2022-10-28T05:12:52.880Z,8.40
2022-10-28T05:15:20.244Z,8.40
2022-10-28T05:17:47.973Z,8.50
2022-10-28T05:20:17.547Z,8.50
2022-10-28T05:22:53.925Z,8.50
2022-10-28T05:25:22.621Z,8.60
2022-10-28T05:27:49.929Z,8.50
2022-10-28T05:30:17.605Z,8.50
2022-10-28T05:32:45.156Z,8.60
2022-10-28T05:35:12.659Z,8.60
2022-10-28T05:37:39.556Z,8.80
2022-10-28T05:40:07.372Z,8.80
2022-10-28T05:42:39.998Z,8.80
2022-10-28T05:45:07.407Z,8.90
2022-10-28T05:47:36.482Z,8.90
2022-10-28T05:50:06.811Z,8.90
2022-10-28T05:52:33.828Z,8.90
2022-10-28T05:55:00.937Z,9.00
2022-10-28T05:57:27.872Z,9.10
2022-10-28T05:59:54.977Z,9.10
2022-10-28T06:02:21.892Z,9.20
2022-10-28T06:04:48.956Z,9.20
2022-10-28T06:07:15.848Z,9.20
2022-10-28T06:09:43.032Z,9.20
2022-10-28T06:12:08.498Z,9.30
2022-10-28T06:14:35.656Z,9.30
2022-10-28T06:17:02.899Z,9.40
2022-10-28T06:19:30.046Z,9.40
2022-10-28T06:21:57.075Z,9.40
2022-10-28T06:24:24.295Z,9.40
2022-10-28T06:26:51.291Z,9.40
2022-10-28T06:29:19.047Z,9.50
2022-10-28T06:31:45.977Z,9.50
2022-10-28T06:34:13.086Z,9.60
2022-10-28T06:36:40.099Z,9.70
2022-10-28T06:39:07.768Z,9.70
2022-10-28T06:41:34.681Z,9.80
2022-10-28T06:44:02.033Z,9.80
2022-10-28T06:46:29.276Z,9.80
2022-10-28T06:48:58.340Z,9.90
2022-10-28T06:51:25.271Z,9.90
2022-10-28T06:53:52.642Z,10.00
2022-10-28T06:56:19.706Z,10.00
2022-10-28T06:58:54.671Z,10.10
2022-10-28T07:01:36.974Z,10.10
2022-10-28T07:04:13.137Z,10.20
2022-10-28T07:06:40.900Z,10.30
2022-10-28T07:09:08.139Z,10.40
2022-10-28T07:11:35.788Z,10.50
2022-10-28T07:14:02.932Z,10.60
2022-10-28T07:16:29.919Z,10.70
2022-10-28T07:18:57.309Z,10.80
2022-10-28T07:21:28.405Z,10.80
2022-10-28T07:23:58.362Z,10.70
2022-10-28T07:26:25.643Z,10.70
2022-10-28T07:28:52.959Z,10.80
2022-10-28T07:31:20.037Z,11.00
2022-10-28T07:33:52.762Z,11.00
2022-10-28T07:36:19.911Z,11.40
2022-10-28T07:38:51.668Z,11.60
2022-10-28T07:41:21.050Z,11.80
2022-10-28T07:43:48.748Z,12.10
2022-10-28T07:46:16.847Z,12.40
2022-10-28T07:48:43.982Z,12.80
2022-10-28T07:51:14.096Z,13.20
2022-10-28T07:53:41.954Z,13.40
2022-10-28T07:56:13.224Z,13.80
2022-10-28T07:58:41.510Z,14.00
2022-10-28T08:01:11.079Z,13.90
2022-10-28T08:03:39.259Z,14.00
2022-10-28T08:06:10.760Z,14.00
2022-10-28T08:08:38.884Z,14.20
2022-10-28T08:11:15.044Z,14.50
2022-10-28T08:13:42.534Z,14.60
2022-10-28T08:16:09.784Z,14.70
2022-10-28T08:18:37.835Z,14.50
2022-10-28T08:21:06.638Z,14.30
2022-10-28T08:23:34.429Z,13.90
2022-10-28T08:26:02.109Z,13.80
2022-10-28T08:28:44.180Z,13.90
2022-10-28T08:31:25.972Z,14.40
2022-10-28T08:34:29.944Z,14.80
2022-10-28T08:37:31.983Z,15.20
2022-10-28T08:40:48.998Z,15.30
2022-10-28T08:44:08.471Z,15.00
2022-10-28T08:47:03.592Z,14.60
2022-10-28T08:50:06.703Z,14.30
2022-10-28T08:53:34.676Z,14.40
2022-10-28T08:56:25.497Z,14.30
2022-10-28T08:59:28.042Z,14.60
2022-10-28T09:02:52.691Z,14.80
2022-10-28T09:05:35.015Z,15.20
2022-10-28T09:08:28.741Z,15.80
2022-10-28T09:11:10.510Z,16.10
2022-10-28T09:13:58.563Z,16.30
2022-10-28T09:17:11.215Z,16.60
2022-10-28T09:19:59.443Z,16.80
2022-10-28T09:22:49.989Z,16.70
2022-10-28T09:26:13.299Z,16.50
2022-10-28T09:29:21.089Z,16.60
2022-10-28T09:32:17.658Z,16.80
2022-10-28T09:34:49.811Z,16.50
2022-10-28T09:37:24.238Z,16.10
2022-10-28T09:39:56.387Z,15.70
2022-10-28T09:42:55.690Z,15.70
2022-10-28T09:45:28.552Z,16.20
2022-10-28T09:48:18.941Z,16.40
2022-10-28T09:50:49.190Z,16.40
2022-10-28T09:53:37.664Z,16.90
2022-10-28T09:56:06.520Z,17.00
2022-10-28T09:58:38.372Z,16.70
2022-10-28T10:01:05.682Z,16.40
2022-10-28T10:03:33.275Z,16.40
2022-10-28T10:06:11.498Z,16.60
2022-10-28T10:08:40.594Z,16.90
2022-10-28T10:11:32.486Z,17.20
2022-10-28T10:14:05.469Z,17.40
2022-10-28T10:16:47.380Z,17.80
2022-10-28T10:19:14.360Z,18.10
2022-10-28T10:21:57.246Z,18.00
2022-10-28T10:24:28.952Z,17.80
2022-10-28T10:26:58.141Z,17.70
2022-10-28T10:29:25.872Z,17.80
2022-10-28T10:32:33.731Z,17.90
2022-10-28T10:35:06.791Z,18.20
2022-10-28T10:37:43.809Z,18.20
2022-10-28T10:40:34.233Z,18.10
2022-10-28T10:43:22.781Z,18.40
2022-10-28T10:46:00.692Z,18.30
2022-10-28T10:48:29.263Z,18.70
2022-10-28T10:50:56.967Z,18.90
2022-10-28T10:53:30.528Z,19.00
2022-10-28T10:56:01.489Z,18.80
2022-10-28T10:58:33.804Z,18.70
2022-10-28T11:01:04.794Z,19.10
2022-10-28T11:03:39.038Z,19.40
2022-10-28T11:06:23.125Z,20.10
2022-10-28T11:08:59.520Z,20.10
2022-10-28T11:11:39.049Z,20.00
2022-10-28T11:14:22.676Z,20.50
2022-10-28T11:16:55.382Z,20.20
2022-10-28T11:19:35.231Z,20.10
2022-10-28T11:22:39.957Z,19.90
2022-10-28T11:25:44.069Z,19.90
2022-10-28T11:28:33.422Z,19.80
2022-10-28T11:31:00.672Z,19.90
2022-10-28T11:33:43.736Z,20.10
2022-10-28T11:36:34.102Z,20.30
2022-10-28T11:39:24.280Z,19.90
2022-10-28T11:42:00.144Z,19.80
2022-10-28T11:44:31.766Z,19.70
2022-10-28T11:47:10.440Z,19.90
2022-10-28T12:02:39.165Z,20.40
2022-10-28T12:05:15.179Z,19.90
2022-10-28T12:08:06.275Z,20.10
2022-10-28T12:10:57.327Z,20.40
2022-10-28T12:41:56.356Z,19.90
2022-10-28T12:44:25.951Z,19.80
2022-10-28T12:47:22.936Z,19.90
2022-10-28T12:49:52.887Z,20.00
2022-10-28T12:52:38.323Z,19.80
2022-10-28T12:55:11.001Z,19.60
2022-10-28T12:57:41.003Z,19.50
2022-10-28T13:00:25.775Z,19.60
2022-10-28T13:03:02.271Z,19.60
2022-10-28T13:05:37.921Z,19.60
2022-10-28T13:08:12.856Z,19.50
2022-10-28T13:11:21.176Z,19.60
2022-10-28T13:14:04.796Z,19.50
2022-10-28T13:16:42.709Z,19.50
2022-10-28T13:19:34.023Z,19.40
2022-10-28T13:22:06.905Z,19.30
2022-10-28T13:24:44.726Z,19.20
2022-10-28T13:27:14.143Z,19.20
2022-10-28T13:29:43.228Z,19.10
2022-10-28T13:32:39.692Z,19.10
2022-10-28T13:35:24.242Z,19.10
2022-10-28T13:37:54.267Z,19.00
2022-10-28T13:40:43.266Z,19.00
2022-10-28T13:43:21.928Z,18.80
2022-10-28T13:45:56.056Z,18.70
2022-10-28T13:48:29.314Z,18.60
2022-10-28T13:51:11.630Z,18.60
2022-10-28T13:53:47.927Z,18.60
2022-10-28T13:56:29.857Z,18.60
2022-10-28T13:59:14.167Z,18.60
2022-10-28T14:01:56.491Z,18.60
2022-10-28T14:04:38.940Z,18.70
2022-10-28T14:07:08.686Z,18.60
2022-10-28T14:09:37.284Z,18.60
2022-10-28T14:12:22.731Z,18.60
2022-10-28T14:15:04.388Z,18.50
2022-10-28T14:17:35.872Z,18.30
2022-10-28T14:20:06.856Z,18.30
2022-10-28T14:22:36.214Z,18.20
2022-10-28T14:25:23.801Z,18.20
2022-10-28T14:27:50.773Z,18.20
2022-10-28T14:30:20.810Z,18.10
2022-10-28T14:32:58.650Z,18.00
2022-10-28T14:35:44.916Z,18.00
2022-10-28T14:38:35.000Z,17.90
2022-10-28T14:41:24.005Z,17.90
2022-10-28T14:44:02.892Z,17.90
2022-10-28T14:46:51.790Z,17.80
2022-10-28T14:49:27.381Z,17.80
2022-10-28T14:51:55.464Z,17.80
2022-10-28T14:54:48.858Z,17.70
2022-10-28T14:57:22.152Z,17.70
2022-10-28T14:59:51.649Z,17.60
2022-10-28T15:02:25.348Z,17.60
2022-10-28T15:05:13.855Z,17.50
2022-10-28T15:07:41.940Z,17.40
2022-10-28T15:10:16.225Z,17.20
2022-10-28T15:12:45.694Z,17.10
2022-10-28T15:15:25.052Z,17.10
2022-10-28T15:17:52.951Z,17.10
2022-10-28T15:20:35.800Z,17.10
2022-10-28T15:23:21.508Z,17.00
2022-10-28T15:26:17.754Z,17.00
2022-10-28T15:28:44.905Z,17.00
2022-10-28T15:31:11.773Z,17.00
2022-10-28T15:33:53.499Z,16.90
2022-10-28T15:36:55.310Z,16.80
2022-10-28T15:40:32.331Z,16.80
2022-10-28T15:43:20.119Z,16.70
2022-10-28T15:46:10.912Z,16.60
2022-10-28T15:48:58.552Z,16.60
2022-10-28T15:52:18.526Z,16.60
2022-10-28T15:55:26.674Z,16.50
2022-10-28T15:58:19.287Z,16.50
2022-10-28T16:01:01.409Z,16.50
2022-10-28T16:03:46.256Z,16.50
2022-10-28T16:06:58.658Z,16.50
2022-10-28T16:10:22.923Z,16.50
2022-10-28T16:13:09.091Z,16.50
2022-10-28T16:16:24.399Z,16.50
2022-10-28T16:19:41.255Z,16.60
2022-10-28T16:23:04.189Z,16.60
2022-10-28T16:25:46.016Z,16.50
2022-10-28T16:28:28.172Z,16.50
2022-10-28T16:31:34.488Z,16.60
2022-10-28T16:34:56.734Z,16.60
2022-10-28T16:37:44.205Z,16.60
2022-10-28T16:43:30.347Z,16.60
2022-10-28T16:46:32.023Z,16.60
2022-10-28T16:49:33.745Z,16.60
2022-10-28T16:52:56.540Z,16.60
2022-10-28T16:55:38.657Z,16.60
2022-10-28T16:58:23.204Z,16.60
2022-10-28T17:01:28.177Z,16.60
2022-10-28T17:04:49.888Z,16.60
2022-10-28T17:08:11.598Z,16.60
2022-10-28T17:11:13.282Z,16.60
2022-10-28T17:13:55.057Z,16.50
2022-10-28T17:16:39.241Z,16.50
2022-10-28T17:19:45.721Z,16.50
2022-10-28T17:23:07.400Z,16.40
2022-10-28T17:25:59.577Z,16.50
2022-10-28T17:28:41.379Z,16.40
2022-10-28T17:31:43.163Z,16.40
2022-10-28T17:35:04.839Z,16.40
2022-10-28T17:37:46.616Z,16.40
2022-10-28T17:40:32.078Z,16.40
2022-10-28T17:43:34.462Z,16.40
2022-10-28T17:46:59.216Z,16.40
2022-10-28T17:50:20.882Z,16.40
2022-10-28T17:53:22.847Z,16.30
2022-10-28T17:56:06.340Z,16.30
2022-10-28T17:58:48.691Z,16.30
2022-10-28T18:01:51.231Z,16.20
2022-10-28T18:05:13.099Z,16.30
2022-10-28T18:07:55.298Z,16.30
2022-10-28T18:10:37.284Z,16.30
2022-10-28T18:13:39.043Z,16.40
2022-10-28T18:17:00.756Z,16.40
2022-10-28T18:19:42.526Z,16.30
2022-10-28T18:25:27.613Z,16.20
2022-10-28T18:28:49.651Z,16.20
2022-10-28T18:31:34.788Z,16.10
2022-10-28T18:34:19.283Z,16.10
2022-10-28T18:37:22.012Z,16.10
2022-10-28T18:40:43.765Z,16.10
2022-10-28T18:44:05.564Z,16.10
2022-10-28T18:47:07.270Z,16.00
2022-10-28T18:49:49.272Z,16.00
2022-10-28T18:52:31.067Z,16.00
2022-10-28T18:55:32.848Z,15.90
2022-10-28T18:58:55.114Z,16.00
2022-10-28T19:01:37.532Z,16.00
2022-10-28T19:04:19.345Z,16.00
2022-10-28T19:07:01.109Z,16.10
2022-10-28T19:10:03.604Z,16.10
2022-10-28T19:13:05.311Z,16.10
2022-10-28T19:16:27.318Z,16.10
2022-10-28T19:19:09.091Z,16.10
2022-10-28T19:21:51.597Z,16.10
2022-10-28T19:24:53.365Z,16.00
2022-10-28T19:28:15.001Z,16.00
2022-10-28T19:31:04.925Z,16.00
2022-10-28T19:33:47.253Z,16.10
2022-10-28T19:36:30.286Z,16.00
2022-10-28T19:39:31.981Z,16.00
2022-10-28T19:42:33.692Z,16.00
2022-10-28T19:45:55.384Z,16.00
2022-10-28T19:49:17.053Z,16.00
2022-10-28T19:52:18.754Z,16.00
2022-10-28T19:55:00.504Z,16.00
2022-10-28T19:58:02.193Z,16.00
2022-10-28T20:00:44.027Z,16.00
2022-10-28T20:03:26.062Z,15.90
2022-10-28T20:06:28.995Z,16.00
2022-10-28T20:09:50.729Z,16.00
2022-10-28T20:13:12.423Z,15.90
2022-10-28T20:16:14.474Z,15.80
2022-10-28T20:18:57.484Z,15.80
2022-10-28T20:21:39.643Z,15.70
2022-10-28T20:24:41.374Z,15.60
2022-10-28T20:28:02.998Z,15.60
2022-10-28T20:30:54.708Z,15.50
2022-10-28T20:33:38.753Z,15.40
2022-10-28T20:36:23.539Z,15.30
2022-10-28T20:39:34.311Z,15.20
2022-10-28T20:42:16.604Z,15.20
2022-10-28T20:44:58.333Z,15.20
2022-10-28T20:48:00.082Z,15.20
2022-10-28T20:51:21.956Z,15.20
2022-10-28T20:54:03.941Z,15.20
2022-10-28T20:56:45.674Z,15.30
2022-10-28T20:59:49.271Z,15.30
2022-10-28T21:03:11.472Z,15.20
2022-10-28T21:06:33.224Z,15.10
2022-10-28T21:09:34.977Z,15.00
2022-10-28T21:12:17.820Z,15.00
2022-10-28T21:14:59.561Z,15.10
2022-10-28T21:18:02.931Z,15.00
2022-10-28T21:20:44.733Z,15.00
2022-10-28T21:23:47.194Z,15.00
2022-10-28T21:27:08.837Z,15.00
2022-10-28T21:29:50.649Z,14.90
2022-10-28T21:32:37.076Z,14.90
2022-10-28T21:35:39.028Z,14.80
2022-10-28T21:39:00.677Z,14.80
2022-10-28T21:41:42.465Z,14.80
2022-10-28T21:44:24.248Z,14.70
2022-10-28T21:47:26.036Z,14.70
2022-10-28T21:50:09.081Z,14.60
2022-10-28T21:53:11.292Z,14.60
2022-10-28T21:56:32.929Z,14.50
2022-10-28T21:59:14.716Z,14.40
2022-10-28T22:01:56.619Z,14.40
2022-10-28T22:04:39.546Z,14.40
2022-10-28T22:07:41.292Z,14.30
2022-10-28T22:10:43.020Z,14.30
2022-10-28T22:13:24.760Z,14.30
2022-10-28T22:16:46.546Z,14.30
2022-10-28T22:19:48.943Z,14.30
2022-10-28T22:22:50.648Z,14.30
2022-10-28T22:26:12.309Z,14.30
2022-10-28T22:28:54.308Z,14.20
2022-10-28T22:31:36.120Z,14.20
2022-10-28T22:34:37.828Z,14.20
2022-10-28T22:37:59.509Z,14.20
2022-10-28T22:40:41.309Z,14.20
2022-10-28T22:43:23.033Z,14.30
2022-10-28T22:46:26.193Z,14.30
2022-10-28T22:49:47.829Z,14.20
2022-10-28T22:52:29.748Z,14.20
2022-10-28T22:55:12.212Z,14.20
2022-10-28T22:58:13.933Z,14.10
2022-10-28T23:01:35.640Z,14.10
2022-10-28T23:04:17.955Z,14.10
2022-10-28T23:06:59.684Z,14.10
2022-10-28T23:09:41.430Z,14.10
2022-10-28T23:12:43.144Z,14.10
2022-10-28T23:15:45.171Z,14.10
2022-10-28T23:19:06.945Z,14.10
2022-10-28T23:21:48.690Z,14.10
2022-10-28T23:24:30.471Z,14.10
2022-10-28T23:27:32.715Z,14.10
2022-10-28T23:30:54.388Z,14.10
2022-10-28T23:33:36.173Z,14.10
2022-10-28T23:36:18.030Z,14.10
2022-10-28T23:39:19.749Z,14.10
2022-10-28T23:42:41.386Z,14.10
2022-10-28T23:45:23.269Z,14.10
2022-10-28T23:48:05.212Z,14.10
2022-10-28T23:51:06.972Z,14.10
2022-10-28T23:54:28.602Z,14.00
2022-10-28T23:57:10.455Z,14.00
2022-10-28T23:59:54.094Z,13.90
